Agana Heights, GU (96910)

12:47 AM ChST on August 30, 2014 (GMT +1000)
Maite | Change Station
CLOSE
Current Station
Personal Weather Station
Location: Maite, GU
Elevation: 140 ft
Nearby Weather Stations

Elev 140 ft 13.48 °N, 144.76 °E | Updated 24 seconds ago

Scattered Clouds
Scattered Clouds
81.6 °F
Feels Like 90 °F
N
2.0
Wind Variable Wind from ENE
Gusts 4.0 mph

Today
High -- | Low -- °F
--% Chance of Precip.
Yesterday
High -- | Low -- °F
Precip. -- in
6:09 AM 6:33 PM
Waxing Crescent, 14% visible
Pressure 29.79 in
Visibility 10.0 miles
Clouds Few 2000 ft
Scattered Clouds 8500 ft
Heat Index 90 °F
Dew Point 78 °F
Humidity 90%
Rainfall 0.00 in
Snow Depth Not available.
UV 0.0 out of 12
Pollen Not available.
Air Quality Not available.
Flu Activity Not available.
METAR PGUM 291354Z 03005KT 10SM FEW020 SCT085 27/25 A2982 RMK AO2 SLP087 T02720250 403280261

More Conditions Fewer Conditions

Pressure 29.79 in
Visibility 10.0 miles
Clouds Few 2000 ft
Scattered Clouds 8500 ft
Heat Index 90 °F
Dew Point 78 °F
Humidity 90%
Rainfall 0.00 in
Snow Depth Not available.
UV 0.0 out of 12
Pollen Not available.
Air Quality Not available.
Flu Activity Not available.
METAR PGUM 291354Z 03005KT 10SM FEW020 SCT085 27/25 A2982 RMK AO2 SLP087 T02720250 403280261

More Conditions Fewer Conditions

10-Day Weather Forecast

Almanac

Astronomy

Aug. 30, 2014 Rise Set
Actual Time 6:09 AM ChST 6:33 PM ChST
Civil Twilight 5:47 AM ChST 6:55 PM ChST
Nautical Twilight 5:22 AM ChST 7:20 PM ChST
Astronomical Twilight 4:57 AM ChST 7:45 PM ChST
Moon 9:32 AM ChST (8/30) 9:34 PM ChST (8/30)
Length of Visible Light 13h 07m
Length of Day
12h 24m
Tomorrow will be 0m 43s shorter.
Waxing Crescent, 14% of the Moon is Illuminated
Aug 29
Waxing Crescent
Sep 2
First Quarter
Sep 8
Full
Sep 15
Last Quarter
Sep 24
New

Community

WunderPhotos

Upload Photos

1,748,258 photos uploaded!

Nearby

Snow Depth

Station Depth Elevation
No new snow has been reported.

Earthquake Activity

City Distance Mag. Time & Date
No recent earthquake activity has been reported nearby.
Minimum magnitude displayed is 2.5.

Coastal Water Temperatures

Place Temperature
No Stations Reporting

Nearby Weather Stations